createdAt,value
2019-05-03T00:00:11.449Z,9.07
2019-05-03T00:02:41.705Z,8.70
2019-05-03T00:05:12.511Z,8.77
2019-05-03T00:07:42.042Z,8.53
2019-05-03T00:10:09.344Z,9.00
2019-05-03T00:12:36.179Z,9.30
2019-05-03T00:15:07.727Z,9.03
2019-05-03T00:17:34.299Z,8.40
2019-05-03T00:20:02.329Z,8.07
2019-05-03T00:22:29.591Z,9.03
2019-05-03T00:25:05.284Z,9.07
2019-05-03T00:27:24.895Z,9.80
2019-05-03T00:29:52.391Z,9.80
2019-05-03T00:32:21.598Z,9.60
2019-05-03T00:34:52.059Z,9.93
2019-05-03T00:37:22.089Z,9.70
2019-05-03T00:39:52.384Z,9.07
2019-05-03T00:42:20.082Z,9.87
2019-05-03T00:44:46.723Z,9.77
2019-05-03T00:47:13.457Z,10.03
2019-05-03T00:49:40.103Z,9.97
2019-05-03T00:52:06.861Z,10.00
2019-05-03T00:54:33.671Z,10.13
2019-05-03T00:57:02.546Z,10.03
2019-05-03T00:59:29.009Z,10.73
2019-05-03T01:01:55.691Z,9.97
2019-05-03T01:04:22.436Z,10.10
2019-05-03T01:06:49.181Z,9.90
2019-05-03T01:09:17.657Z,11.20
2019-05-03T01:11:44.403Z,9.47
2019-05-03T01:14:11.991Z,9.73
2019-05-03T01:16:38.937Z,10.57
2019-05-03T01:19:05.507Z,10.30
2019-05-03T01:21:32.165Z,10.97
2019-05-03T01:23:58.875Z,11.47
2019-05-03T01:26:25.536Z,10.80
2019-05-03T01:28:52.443Z,10.97
2019-05-03T01:31:19.461Z,10.87
2019-05-03T01:33:46.034Z,10.73
2019-05-03T01:36:12.944Z,11.83
2019-05-03T01:38:39.511Z,10.83
2019-05-03T01:41:06.194Z,10.43
2019-05-03T01:43:32.799Z,10.97
2019-05-03T01:45:59.590Z,10.93
2019-05-03T01:48:28.169Z,11.97
2019-05-03T01:50:56.768Z,10.73
2019-05-03T01:53:25.313Z,11.80
2019-05-03T01:55:52.393Z,10.80
2019-05-03T01:58:22.363Z,11.70
2019-05-03T02:00:52.833Z,10.77
2019-05-03T02:03:21.841Z,11.30
2019-05-03T02:05:52.044Z,10.87
2019-05-03T02:08:18.914Z,11.73
2019-05-03T02:10:45.687Z,11.60
2019-05-03T02:13:12.400Z,10.70
2019-05-03T02:15:39.086Z,11.30
2019-05-03T02:18:05.926Z,11.80
2019-05-03T02:20:32.753Z,12.97
2019-05-03T02:22:59.474Z,11.07
2019-05-03T02:25:26.238Z,11.37
2019-05-03T02:27:54.424Z,12.13
2019-05-03T02:30:21.207Z,11.30
2019-05-03T02:32:47.878Z,12.07
2019-05-03T02:35:15.150Z,11.80
2019-05-03T02:37:44.343Z,11.93
2019-05-03T02:40:13.183Z,11.83
2019-05-03T02:42:42.144Z,10.87
2019-05-03T02:45:15.487Z,11.97
2019-05-03T02:47:47.028Z,11.40
2019-05-03T02:50:16.685Z,11.83
2019-05-03T02:52:45.563Z,10.70
2019-05-03T02:55:15.636Z,11.07
2019-05-03T02:57:41.692Z,11.13
2019-05-03T03:00:12.170Z,11.47
2019-05-03T03:02:40.523Z,11.20
2019-05-03T03:05:09.559Z,10.60
2019-05-03T03:07:37.838Z,10.80
2019-05-03T03:10:06.412Z,10.83
2019-05-03T03:12:36.995Z,10.43
2019-05-03T03:15:06.238Z,11.67
2019-05-03T03:17:36.165Z,11.33
2019-05-03T03:20:05.814Z,11.27
2019-05-03T03:22:36.254Z,13.57
2019-05-03T03:25:06.175Z,17.10
2019-05-03T03:27:38.474Z,20.90
2019-05-03T03:30:12.453Z,20.03
2019-05-03T03:32:40.358Z,19.83
2019-05-03T03:35:14.891Z,15.77
2019-05-03T03:37:41.624Z,13.57
2019-05-03T03:40:08.452Z,13.27
2019-05-03T03:42:39.451Z,13.27
2019-05-03T03:45:06.751Z,12.23
2019-05-03T03:47:37.218Z,12.00
2019-05-03T03:50:05.934Z,12.30
2019-05-03T03:52:35.863Z,11.47
2019-05-03T03:55:06.186Z,12.97
2019-05-03T03:57:35.665Z,13.17
2019-05-03T04:00:06.812Z,13.57
2019-05-03T04:02:35.392Z,12.10
2019-05-03T04:05:05.558Z,12.23
2019-05-03T04:07:36.111Z,13.00
2019-05-03T04:10:06.574Z,12.43
2019-05-03T04:12:35.231Z,13.90
2019-05-03T04:15:06.333Z,13.63
2019-05-03T04:17:36.115Z,13.00
2019-05-03T04:20:06.698Z,14.40
2019-05-03T04:22:36.336Z,13.70
2019-05-03T04:25:05.991Z,13.10
2019-05-03T04:27:36.429Z,14.13
2019-05-03T04:30:05.971Z,13.17
2019-05-03T04:32:32.988Z,13.37
2019-05-03T04:34:59.726Z,14.40
2019-05-03T04:37:29.596Z,13.07
2019-05-03T04:39:56.266Z,12.80
2019-05-03T04:42:25.362Z,13.60
2019-05-03T04:44:51.946Z,14.27
2019-05-03T04:47:18.517Z,13.47
2019-05-03T04:49:46.321Z,13.07
2019-05-03T04:52:16.232Z,13.70
2019-05-03T04:54:45.206Z,13.80
2019-05-03T04:57:12.134Z,12.03
2019-05-03T04:59:38.819Z,12.23
2019-05-03T05:02:06.264Z,10.57
2019-05-03T05:04:35.511Z,10.80
2019-05-03T05:07:01.891Z,10.37
2019-05-03T05:09:28.518Z,9.83
2019-05-03T05:11:55.274Z,9.93
2019-05-03T05:14:22.150Z,10.00
2019-05-03T05:16:48.792Z,9.00
2019-05-03T05:19:17.477Z,9.20
2019-05-03T05:21:46.073Z,8.30
2019-05-03T05:24:15.041Z,9.33
2019-05-03T05:26:44.632Z,8.70
2019-05-03T05:29:14.582Z,8.33
2019-05-03T05:31:41.937Z,7.53
2019-05-03T05:34:09.089Z,7.70
2019-05-03T05:36:35.642Z,7.87
2019-05-03T05:39:05.320Z,7.00
2019-05-03T05:41:32.479Z,7.07
2019-05-03T05:43:59.227Z,7.27
2019-05-03T05:46:27.831Z,7.77
2019-05-03T05:48:55.536Z,6.80
2019-05-03T05:51:22.311Z,7.23
2019-05-03T05:53:48.978Z,7.70
2019-05-03T05:56:17.592Z,7.13
2019-05-03T05:58:46.344Z,6.70
2019-05-03T06:01:15.135Z,6.23
2019-05-03T06:03:42.003Z,6.53
2019-05-03T06:06:10.654Z,6.03
2019-05-03T06:08:39.221Z,7.17
2019-05-03T06:11:08.095Z,6.73
2019-05-03T06:13:36.751Z,6.10
2019-05-03T06:16:05.538Z,7.83
2019-05-03T06:18:35.334Z,6.10
2019-05-03T06:21:04.652Z,6.43
2019-05-03T06:23:34.763Z,6.37
2019-05-03T06:26:05.006Z,5.50
2019-05-03T06:28:35.255Z,4.80
2019-05-03T06:31:04.777Z,4.40
2019-05-03T06:33:31.889Z,3.87
2019-05-03T06:35:58.651Z,3.77
2019-05-03T06:38:25.224Z,3.20
2019-05-03T06:40:54.379Z,2.10
2019-05-03T06:43:21.273Z,2.40
2019-05-03T06:45:50.358Z,1.97
2019-05-03T06:48:17.715Z,1.97
2019-05-03T06:50:45.486Z,1.80
2019-05-03T06:53:13.035Z,2.33
2019-05-03T06:55:45.544Z,1.67
2019-05-03T06:58:09.157Z,1.80
2019-05-03T07:00:37.945Z,1.93
2019-05-03T07:03:06.606Z,1.83
2019-05-03T07:05:35.480Z,1.80
2019-05-03T07:08:05.553Z,2.13
2019-05-03T07:10:35.318Z,1.93
2019-05-03T07:13:05.073Z,1.90
2019-05-03T07:15:32.384Z,1.67
2019-05-03T07:17:59.141Z,1.77
2019-05-03T07:20:26.203Z,1.63
2019-05-03T07:22:55.691Z,1.90
2019-05-03T07:25:25.313Z,1.60
2019-05-03T07:27:55.286Z,1.70
2019-05-03T07:30:21.830Z,1.77
2019-05-03T07:32:50.355Z,2.07
2019-05-03T07:35:17.088Z,2.30
2019-05-03T07:37:45.072Z,1.93
2019-05-03T07:40:14.710Z,1.87
2019-05-03T07:42:42.605Z,4.33
2019-05-03T07:45:11.817Z,2.23
2019-05-03T07:47:38.499Z,1.50
2019-05-03T07:50:05.784Z,1.70
2019-05-03T07:52:34.748Z,2.20
2019-05-03T07:55:01.996Z,1.93
2019-05-03T07:57:30.648Z,1.83
2019-05-03T07:59:57.371Z,2.27
2019-05-03T08:02:27.100Z,1.80
2019-05-03T08:04:54.804Z,1.70
2019-05-03T08:07:23.047Z,2.20
2019-05-03T08:09:50.197Z,2.17
2019-05-03T08:12:16.853Z,2.40
2019-05-03T08:14:44.666Z,2.17
2019-05-03T08:17:11.913Z,2.33
2019-05-03T08:19:38.621Z,2.30
2019-05-03T08:22:05.458Z,2.10
2019-05-03T08:24:32.130Z,3.67
2019-05-03T08:26:58.959Z,2.87
2019-05-03T08:29:25.611Z,2.23
2019-05-03T08:31:55.274Z,3.13
2019-05-03T08:34:25.781Z,2.63
2019-05-03T08:37:50.990Z,3.50
2019-05-03T08:40:18.564Z,2.80
2019-05-03T08:42:46.563Z,2.23
2019-05-03T08:45:16.477Z,2.20
2019-05-03T08:47:44.852Z,2.60
2019-05-03T08:50:15.097Z,2.00
2019-05-03T08:52:40.618Z,2.27
2019-05-03T08:55:07.620Z,3.70
2019-05-03T08:57:35.398Z,2.40
2019-05-03T09:00:07.865Z,4.13
2019-05-03T09:02:34.631Z,2.10
2019-05-03T09:05:01.425Z,2.50
2019-05-03T09:07:28.322Z,2.93
2019-05-03T09:09:56.962Z,3.20
2019-05-03T09:12:25.187Z,2.50
2019-05-03T09:14:52.232Z,3.03
2019-05-03T09:17:18.886Z,3.67
2019-05-03T09:19:45.700Z,2.83
2019-05-03T09:22:12.292Z,2.53
2019-05-03T09:24:39.136Z,2.60
2019-05-03T09:27:05.939Z,3.33
2019-05-03T09:29:41.052Z,2.67
2019-05-03T09:32:01.364Z,2.70
2019-05-03T09:34:28.106Z,2.20
2019-05-03T09:36:55.366Z,2.40
2019-05-03T09:39:22.134Z,2.63
2019-05-03T09:41:48.706Z,3.50
2019-05-03T09:44:15.560Z,3.00
2019-05-03T09:46:42.187Z,2.87
2019-05-03T09:49:13.253Z,3.23
2019-05-03T09:51:37.483Z,2.77
2019-05-03T09:54:06.072Z,3.13
2019-05-03T09:56:34.807Z,2.40
2019-05-03T09:59:05.309Z,3.57
2019-05-03T10:01:32.015Z,3.17
2019-05-03T10:03:58.992Z,3.27
2019-05-03T10:06:25.588Z,3.43
2019-05-03T10:08:52.362Z,8.93
2019-05-03T10:11:18.934Z,3.07
2019-05-03T10:13:48.284Z,2.10
2019-05-03T10:16:15.568Z,2.80
2019-05-03T10:18:42.783Z,2.40
2019-05-03T10:21:09.594Z,2.13
2019-05-03T10:23:38.056Z,2.10
2019-05-03T10:26:05.237Z,2.13
2019-05-03T10:28:32.457Z,2.60
2019-05-03T10:31:00.925Z,2.43
2019-05-03T10:33:30.036Z,2.50
2019-05-03T10:35:56.912Z,2.40
2019-05-03T10:38:24.621Z,2.20
2019-05-03T10:40:51.390Z,2.10
2019-05-03T10:43:17.988Z,2.50
2019-05-03T10:45:45.046Z,2.43
2019-05-03T10:48:12.775Z,2.77
2019-05-03T10:50:40.290Z,2.50
2019-05-03T10:53:09.092Z,2.17
2019-05-03T10:55:35.915Z,2.30
2019-05-03T10:58:05.313Z,2.40
2019-05-03T11:00:48.236Z,2.80
2019-05-03T11:03:05.126Z,2.40
2019-05-03T11:05:32.064Z,2.30
2019-05-03T11:07:58.732Z,3.50
2019-05-03T11:10:25.463Z,2.50
2019-05-03T11:12:52.167Z,2.23
2019-05-03T11:15:19.039Z,2.40
2019-05-03T11:17:45.950Z,2.40
2019-05-03T11:20:28.472Z,2.13
2019-05-03T11:22:47.092Z,2.70
2019-05-03T11:25:13.872Z,2.43
2019-05-03T11:27:44.606Z,2.40
2019-05-03T11:30:11.806Z,4.00
2019-05-03T11:32:40.375Z,2.67
2019-05-03T11:35:11.676Z,2.77
2019-05-03T11:37:40.704Z,1.93
2019-05-03T11:40:08.264Z,2.70
2019-05-03T11:42:35.324Z,2.00
2019-05-03T11:45:06.587Z,2.47
2019-05-03T11:47:34.830Z,2.17
2019-05-03T11:50:05.469Z,1.97
2019-05-03T11:52:32.073Z,2.30
2019-05-03T11:54:58.884Z,1.83
2019-05-03T11:57:27.401Z,2.23
2019-05-03T11:59:54.874Z,2.50
2019-05-03T12:02:24.757Z,1.53
2019-05-03T12:04:51.508Z,1.90
2019-05-03T12:07:20.128Z,1.70
2019-05-03T12:09:46.688Z,1.60
2019-05-03T12:12:15.234Z,1.60
2019-05-03T12:14:45.296Z,1.70
2019-05-03T12:17:21.023Z,1.90
2019-05-03T12:19:44.144Z,1.77
2019-05-03T12:22:12.182Z,1.80
2019-05-03T12:24:39.976Z,1.80
2019-05-03T12:27:07.099Z,2.10
2019-05-03T12:29:35.265Z,1.70
2019-05-03T12:32:02.492Z,2.03
2019-05-03T12:34:29.205Z,1.80
2019-05-03T12:36:55.770Z,1.90
2019-05-03T12:39:27.375Z,1.90
2019-05-03T12:41:51.166Z,1.80
2019-05-03T12:44:17.757Z,1.73
2019-05-03T12:46:44.999Z,1.90
2019-05-03T12:49:12.071Z,1.90
2019-05-03T12:51:38.650Z,1.67
2019-05-03T12:54:05.254Z,4.00
2019-05-03T12:56:32.934Z,3.43
2019-05-03T12:59:02.498Z,1.93
2019-05-03T13:01:41.021Z,1.90
2019-05-03T13:04:02.592Z,1.70
2019-05-03T13:06:31.121Z,1.73
2019-05-03T13:08:57.878Z,2.20
2019-05-03T13:11:25.162Z,1.87
2019-05-03T13:13:51.960Z,1.70
2019-05-03T13:16:20.055Z,2.00
2019-05-03T13:18:47.124Z,2.00
2019-05-03T13:21:13.921Z,2.10
2019-05-03T13:23:40.621Z,1.83
2019-05-03T13:26:07.707Z,1.93
2019-05-03T13:28:34.632Z,2.20
2019-05-03T13:31:01.621Z,2.17
2019-05-03T13:33:28.262Z,1.97
2019-05-03T13:35:55.247Z,1.70
2019-05-03T13:38:22.303Z,2.10
2019-05-03T13:40:48.948Z,2.07
2019-05-03T13:43:15.526Z,2.37
2019-05-03T13:45:42.321Z,2.20
2019-05-03T13:48:09.099Z,1.47
2019-05-03T13:50:36.975Z,1.10
2019-05-03T13:53:04.835Z,1.47
2019-05-03T13:55:32.069Z,2.00
2019-05-03T13:57:58.968Z,1.30
2019-05-03T14:00:25.841Z,3.37
2019-05-03T14:02:52.599Z,1.70
2019-05-03T14:05:19.157Z,2.27
2019-05-03T14:07:45.764Z,1.90
2019-05-03T14:10:14.124Z,1.43
2019-05-03T14:12:41.000Z,1.97
2019-05-03T14:15:08.181Z,2.23
2019-05-03T14:17:36.104Z,1.60
2019-05-03T14:20:09.015Z,1.53
2019-05-03T14:22:37.708Z,3.40
2019-05-03T14:25:05.456Z,2.00
2019-05-03T14:27:34.836Z,1.63
2019-05-03T14:30:05.648Z,1.80
2019-05-03T14:32:35.697Z,1.10
2019-05-03T14:35:06.481Z,1.67
2019-05-03T14:37:34.989Z,1.67
2019-05-03T14:40:06.147Z,1.73
2019-05-03T14:42:32.720Z,1.60
2019-05-03T14:44:59.519Z,1.83
2019-05-03T14:47:26.207Z,2.10
2019-05-03T14:49:54.625Z,1.53
2019-05-03T14:52:21.398Z,2.17
2019-05-03T14:54:49.940Z,1.93
2019-05-03T14:57:18.400Z,2.20
2019-05-03T14:59:47.002Z,1.80
2019-05-03T15:02:15.685Z,2.00
2019-05-03T15:04:42.540Z,1.67
2019-05-03T15:07:09.137Z,1.90
2019-05-03T15:09:35.915Z,2.27
2019-05-03T15:12:05.362Z,2.37
2019-05-03T15:14:32.262Z,2.40
2019-05-03T15:16:58.910Z,2.50
2019-05-03T15:19:25.522Z,2.90
2019-05-03T15:21:52.134Z,2.40
2019-05-03T15:24:18.719Z,2.40
2019-05-03T15:26:45.412Z,1.70
2019-05-03T15:29:12.716Z,1.63
2019-05-03T15:31:39.296Z,1.93
2019-05-03T15:34:06.502Z,1.80
2019-05-03T15:36:33.155Z,2.10
2019-05-03T15:38:59.952Z,1.97
2019-05-03T15:41:26.621Z,2.20
2019-05-03T15:43:55.988Z,1.50
2019-05-03T15:46:25.201Z,2.50
2019-05-03T15:48:55.107Z,1.83
2019-05-03T15:51:22.066Z,2.27
2019-05-03T15:53:49.741Z,1.57
2019-05-03T15:56:16.559Z,1.90
2019-05-03T15:58:46.439Z,1.80
2019-05-03T16:01:11.618Z,1.80
2019-05-03T16:03:38.868Z,1.70
2019-05-03T16:06:05.561Z,1.63
2019-05-03T16:08:32.177Z,1.97
2019-05-03T16:10:58.953Z,2.20
2019-05-03T16:13:25.549Z,2.00
2019-05-03T16:15:55.027Z,1.60
2019-05-03T16:18:21.517Z,2.10
2019-05-03T16:20:48.341Z,2.67
2019-05-03T16:23:15.464Z,1.73
2019-05-03T16:25:42.499Z,2.60
2019-05-03T16:28:10.997Z,2.30
2019-05-03T16:30:38.864Z,2.63
2019-05-03T16:33:05.595Z,2.13
2019-05-03T16:35:32.215Z,2.03
2019-05-03T16:37:58.891Z,1.77
2019-05-03T16:40:25.603Z,2.00
2019-05-03T16:42:53.332Z,2.60
2019-05-03T16:45:22.497Z,2.80
2019-05-03T16:47:49.177Z,2.23
2019-05-03T16:50:16.541Z,2.50
2019-05-03T16:52:43.141Z,2.20
2019-05-03T16:55:10.025Z,1.90
2019-05-03T16:57:37.014Z,2.10
2019-05-03T17:00:06.215Z,2.13
2019-05-03T17:02:34.964Z,1.57
2019-05-03T17:05:05.166Z,2.17
2019-05-03T17:07:35.354Z,2.03
2019-05-03T17:10:07.841Z,2.50
2019-05-03T17:12:36.306Z,2.47
2019-05-03T17:15:06.479Z,2.17
2019-05-03T17:17:34.490Z,3.50
2019-05-03T17:20:06.080Z,4.70
2019-05-03T17:22:34.510Z,5.73
2019-05-03T17:25:04.379Z,5.60
2019-05-03T17:27:31.429Z,5.57
2019-05-03T17:29:58.197Z,5.13
2019-05-03T17:32:25.048Z,5.90
2019-05-03T17:34:51.730Z,2.80
2019-05-03T17:37:18.374Z,3.60
2019-05-03T17:39:46.987Z,2.63
2019-05-03T17:42:15.688Z,2.83
2019-05-03T17:44:45.133Z,3.27
2019-05-03T17:47:11.999Z,3.33
2019-05-03T17:49:38.585Z,3.87
2019-05-03T17:52:07.637Z,4.07
2019-05-03T17:54:36.405Z,3.67
2019-05-03T17:57:05.405Z,5.03
2019-05-03T17:59:35.074Z,2.27
2019-05-03T18:02:06.745Z,3.47
2019-05-03T18:04:35.227Z,4.00
2019-05-03T18:07:04.555Z,3.93
2019-05-03T18:09:34.640Z,5.70
2019-05-03T18:12:04.642Z,5.17
2019-05-03T18:14:31.670Z,5.20
2019-05-03T18:16:58.290Z,6.43
2019-05-03T18:19:24.975Z,6.77
2019-05-03T18:21:51.584Z,6.07
2019-05-03T18:24:18.218Z,7.00
2019-05-03T18:26:44.861Z,5.90
2019-05-03T18:29:11.777Z,4.90
2019-05-03T18:31:38.584Z,3.57
2019-05-03T18:34:18.400Z,2.47
2019-05-03T18:36:34.669Z,3.10
2019-05-03T18:39:02.067Z,3.77
2019-05-03T18:41:30.015Z,3.17
2019-05-03T18:43:58.798Z,3.73
2019-05-03T18:46:27.298Z,3.87
2019-05-03T18:48:55.189Z,5.00
2019-05-03T18:51:22.280Z,4.83
2019-05-03T18:53:48.991Z,5.43
2019-05-03T18:56:16.015Z,4.90
2019-05-03T18:58:44.742Z,5.00
2019-05-03T19:01:14.869Z,6.37
2019-05-03T19:03:45.091Z,5.60
2019-05-03T19:06:14.115Z,6.60
2019-05-03T19:08:40.998Z,6.00
2019-05-03T19:11:11.582Z,4.47
2019-05-03T19:13:41.606Z,5.03
2019-05-03T19:16:10.566Z,5.23
2019-05-03T19:18:39.275Z,5.70
2019-05-03T19:21:06.016Z,5.40
2019-05-03T19:23:32.972Z,5.30
2019-05-03T19:25:59.988Z,4.57
2019-05-03T19:28:26.926Z,4.80
2019-05-03T19:30:55.092Z,5.23
2019-05-03T19:33:21.982Z,4.77
2019-05-03T19:35:48.865Z,4.93
2019-05-03T19:38:15.846Z,5.30
2019-05-03T19:40:42.443Z,4.90
2019-05-03T19:43:09.182Z,5.10
2019-05-03T19:45:35.793Z,5.03
2019-05-03T19:48:03.387Z,5.13
2019-05-03T19:50:29.960Z,4.93
2019-05-03T19:52:58.635Z,5.90
2019-05-03T19:55:25.665Z,5.00
2019-05-03T19:57:54.831Z,5.27
2019-05-03T20:00:25.557Z,4.03
2019-05-03T20:02:54.693Z,5.60
2019-05-03T20:05:25.253Z,5.60
2019-05-03T20:07:57.117Z,5.60
2019-05-03T20:10:25.409Z,5.93
2019-05-03T20:12:52.950Z,7.30
2019-05-03T20:15:20.654Z,6.33
2019-05-03T20:17:56.561Z,5.47
2019-05-03T20:20:16.709Z,5.83
2019-05-03T20:22:45.445Z,6.03
2019-05-03T20:25:15.182Z,5.83
2019-05-03T20:27:44.381Z,5.47
2019-05-03T20:30:15.001Z,6.43
2019-05-03T20:32:42.554Z,6.97
2019-05-03T20:35:18.123Z,5.93
2019-05-03T20:37:39.341Z,6.33
2019-05-03T20:40:06.767Z,6.03
2019-05-03T20:42:35.789Z,6.40
2019-05-03T20:45:05.469Z,7.73
2019-05-03T20:47:35.423Z,7.03
2019-05-03T20:50:07.389Z,8.90
2019-05-03T20:52:35.202Z,10.07
2019-05-03T20:55:04.758Z,10.00
2019-05-03T20:57:31.811Z,10.33
2019-05-03T20:59:58.545Z,10.07
2019-05-03T21:02:25.387Z,10.77
2019-05-03T21:04:52.234Z,9.90
2019-05-03T21:07:19.139Z,11.43
2019-05-03T21:09:45.866Z,12.00
2019-05-03T21:12:14.594Z,12.33
2019-05-03T21:14:41.266Z,11.90
2019-05-03T21:17:09.862Z,11.70
2019-05-03T21:19:38.411Z,11.67
2019-05-03T21:22:10.234Z,12.40
2019-05-03T21:24:40.307Z,12.57
2019-05-03T21:27:07.011Z,10.93
2019-05-03T21:29:35.806Z,12.20
2019-05-03T21:32:04.508Z,11.80
2019-05-03T21:34:31.301Z,11.67
2019-05-03T21:36:57.911Z,11.90
2019-05-03T21:39:25.874Z,12.70
2019-05-03T21:41:52.508Z,14.37
2019-05-03T21:44:21.164Z,12.97
2019-05-03T21:46:49.712Z,14.27
2019-05-03T21:49:18.208Z,15.07
2019-05-03T21:51:45.054Z,17.53
2019-05-03T21:54:12.271Z,18.40
2019-05-03T21:56:39.005Z,18.90
2019-05-03T21:59:05.766Z,20.33
2019-05-03T22:01:37.446Z,19.87
2019-05-03T22:04:04.517Z,21.87
2019-05-03T22:06:31.254Z,20.03
2019-05-03T22:08:58.404Z,18.67
2019-05-03T22:11:25.438Z,19.17
2019-05-03T22:13:56.841Z,17.17
2019-05-03T22:16:24.906Z,17.03
2019-05-03T22:18:51.681Z,16.60
2019-05-03T22:21:20.475Z,15.80
2019-05-03T22:23:49.336Z,15.93
2019-05-03T22:26:16.208Z,15.07
2019-05-03T22:28:44.444Z,15.57
2019-05-03T22:31:11.294Z,14.27
2019-05-03T22:33:37.969Z,14.67
2019-05-03T22:36:08.611Z,14.63
2019-05-03T22:38:36.370Z,15.10
2019-05-03T22:41:01.822Z,16.40
2019-05-03T22:43:28.533Z,16.07
2019-05-03T22:45:55.206Z,17.50
2019-05-03T22:48:21.996Z,16.27
2019-05-03T22:50:48.574Z,20.43
2019-05-03T22:53:15.194Z,18.63
2019-05-03T22:55:41.906Z,19.73
2019-05-03T22:58:09.776Z,19.50
2019-05-03T23:00:36.330Z,19.93
2019-05-03T23:03:03.227Z,20.53
2019-05-03T23:05:30.029Z,21.20
2019-05-03T23:07:56.601Z,20.17
2019-05-03T23:10:25.531Z,19.27
2019-05-03T23:12:51.783Z,18.70
2019-05-03T23:15:18.528Z,21.03
2019-05-03T23:17:45.222Z,19.60
2019-05-03T23:20:15.039Z,20.57
2019-05-03T23:22:41.836Z,18.60
2019-05-03T23:25:09.225Z,19.73
2019-05-03T23:27:36.586Z,19.87
2019-05-03T23:30:05.116Z,20.70
2019-05-03T23:32:34.930Z,21.87
2019-05-03T23:35:04.948Z,21.00
2019-05-03T23:37:32.014Z,23.03
2019-05-03T23:39:58.658Z,23.13
2019-05-03T23:42:25.229Z,23.60
2019-05-03T23:44:51.883Z,22.20
2019-05-03T23:47:20.444Z,21.87
2019-05-03T23:49:47.130Z,20.13
2019-05-03T23:52:17.759Z,19.57
2019-05-03T23:54:44.339Z,19.30
2019-05-03T23:57:10.930Z,20.67
2019-05-03T23:59:39.120Z,19.27
